sensor_id;sensor_type;location;lat;lon;timestamp;pressure;altitude;pressure_sealevel;temperature;humidity
61039;BME280;46919;45.816;3.104;2024-03-23T00:56:12;97734.94;;;12.99;72.55
61039;BME280;46919;45.816;3.104;2024-03-23T00:58:37;97734.28;;;12.92;73.46
61039;BME280;46919;45.816;3.104;2024-03-23T01:01:03;97724.41;;;12.85;73.94
61039;BME280;46919;45.816;3.104;2024-03-23T01:03:31;97729.25;;;12.83;74.05
61039;BME280;46919;45.816;3.104;2024-03-23T01:06:00;97731.38;;;12.81;74.63
61039;BME280;46919;45.816;3.104;2024-03-23T01:08:25;97730.56;;;12.81;74.80
61039;BME280;46919;45.816;3.104;2024-03-23T01:11:01;97734.69;;;12.83;75.24
61039;BME280;46919;45.816;3.104;2024-03-23T01:13:27;97737.72;;;12.87;75.55
61039;BME280;46919;45.816;3.104;2024-03-23T01:15:54;97740.88;;;12.96;75.26
61039;BME280;46919;45.816;3.104;2024-03-23T01:18:21;97727.63;;;12.99;75.44
61039;BME280;46919;45.816;3.104;2024-03-23T01:20:47;97718.28;;;13.07;75.44
61039;BME280;46919;45.816;3.104;2024-03-23T01:23:13;97722.63;;;13.08;75.54
61039;BME280;46919;45.816;3.104;2024-03-23T01:25:39;97735.13;;;13.09;75.73
61039;BME280;46919;45.816;3.104;2024-03-23T01:28:05;97734.47;;;13.19;75.40
61039;BME280;46919;45.816;3.104;2024-03-23T01:30:32;97730.94;;;13.18;75.63
61039;BME280;46919;45.816;3.104;2024-03-23T01:32:57;97744.53;;;13.35;76.52
61039;BME280;46919;45.816;3.104;2024-03-23T01:35:23;97738.13;;;13.58;76.81
61039;BME280;46919;45.816;3.104;2024-03-23T01:37:48;97740.09;;;13.63;76.49
61039;BME280;46919;45.816;3.104;2024-03-23T01:40:13;97739.59;;;13.66;76.22
61039;BME280;46919;45.816;3.104;2024-03-23T01:42:41;97740.03;;;13.58;76.96
61039;BME280;46919;45.816;3.104;2024-03-23T01:45:08;97722.34;;;13.55;77.02
61039;BME280;46919;45.816;3.104;2024-03-23T01:47:35;97735.84;;;13.50;77.82
61039;BME280;46919;45.816;3.104;2024-03-23T01:50:00;97736.31;;;13.47;77.60
61039;BME280;46919;45.816;3.104;2024-03-23T01:52:29;97741.19;;;13.45;77.63
61039;BME280;46919;45.816;3.104;2024-03-23T01:54:55;97746.75;;;13.38;78.47
61039;BME280;46919;45.816;3.104;2024-03-23T01:57:21;97740.66;;;13.31;79.39
61039;BME280;46919;45.816;3.104;2024-03-23T01:59:47;97741.72;;;13.30;79.14
61039;BME280;46919;45.816;3.104;2024-03-23T02:02:12;97734.16;;;13.32;79.09
61039;BME280;46919;45.816;3.104;2024-03-23T02:04:38;97748.59;;;13.33;78.99
61039;BME280;46919;45.816;3.104;2024-03-23T02:07:04;97747.16;;;13.30;79.18
61039;BME280;46919;45.816;3.104;2024-03-23T02:09:31;97752.81;;;13.29;79.03
61039;BME280;46919;45.816;3.104;2024-03-23T02:11:57;97753.78;;;13.22;79.52
61039;BME280;46919;45.816;3.104;2024-03-23T02:14:22;97756.91;;;13.14;79.37
61039;BME280;46919;45.816;3.104;2024-03-23T02:16:47;97750.44;;;13.15;78.07
61039;BME280;46919;45.816;3.104;2024-03-23T02:19:14;97762.28;;;13.26;76.77
61039;BME280;46919;45.816;3.104;2024-03-23T02:21:40;97767.13;;;13.24;76.89
61039;BME280;46919;45.816;3.104;2024-03-23T02:24:05;97779.56;;;13.20;77.27
61039;BME280;46919;45.816;3.104;2024-03-23T02:26:31;97775.41;;;13.17;76.88
61039;BME280;46919;45.816;3.104;2024-03-23T02:28:56;97777.06;;;13.18;76.93
61039;BME280;46919;45.816;3.104;2024-03-23T02:31:21;97786.03;;;13.19;77.11
61039;BME280;46919;45.816;3.104;2024-03-23T02:33:47;97783.66;;;13.22;76.71
61039;BME280;46919;45.816;3.104;2024-03-23T02:36:12;97793.53;;;13.29;76.33
61039;BME280;46919;45.816;3.104;2024-03-23T02:38:37;97791.41;;;13.31;75.68
61039;BME280;46919;45.816;3.104;2024-03-23T02:41:03;97803.38;;;13.18;75.05
61039;BME280;46919;45.816;3.104;2024-03-23T02:43:29;97810.28;;;13.09;74.48
61039;BME280;46919;45.816;3.104;2024-03-23T02:45:54;97799.38;;;12.92;75.13
61039;BME280;46919;45.816;3.104;2024-03-23T02:48:20;97796.03;;;12.73;75.58
61039;BME280;46919;45.816;3.104;2024-03-23T02:50:45;97809.50;;;12.56;76.31
61039;BME280;46919;45.816;3.104;2024-03-23T02:53:11;97817.34;;;12.40;76.62
61039;BME280;46919;45.816;3.104;2024-03-23T02:55:36;97815.81;;;12.21;76.97
61039;BME280;46919;45.816;3.104;2024-03-23T02:58:02;97818.66;;;12.14;76.45
61039;BME280;46919;45.816;3.104;2024-03-23T03:00:28;97826.06;;;12.07;76.85
61039;BME280;46919;45.816;3.104;2024-03-23T03:02:54;97826.19;;;12.00;76.48
61039;BME280;46919;45.816;3.104;2024-03-23T03:05:19;97830.06;;;11.92;76.43
61039;BME280;46919;45.816;3.104;2024-03-23T03:07:44;97837.69;;;11.84;76.29
61039;BME280;46919;45.816;3.104;2024-03-23T03:10:10;97850.66;;;11.82;76.24
61039;BME280;46919;45.816;3.104;2024-03-23T03:12:37;97863.00;;;11.77;76.62
61039;BME280;46919;45.816;3.104;2024-03-23T03:15:03;97869.84;;;11.80;75.97
61039;BME280;46919;45.816;3.104;2024-03-23T03:17:30;97876.88;;;11.81;75.62
61039;BME280;46919;45.816;3.104;2024-03-23T03:19:55;97874.41;;;11.79;74.95
61039;BME280;46919;45.816;3.104;2024-03-23T03:22:22;97881.25;;;11.82;74.20
61039;BME280;46919;45.816;3.104;2024-03-23T03:24:47;97882.31;;;11.81;74.24
61039;BME280;46919;45.816;3.104;2024-03-23T03:27:12;97876.66;;;11.83;72.61
61039;BME280;46919;45.816;3.104;2024-03-23T03:29:38;97864.03;;;11.76;71.78
61039;BME280;46919;45.816;3.104;2024-03-23T03:32:03;97879.13;;;11.72;72.40
61039;BME280;46919;45.816;3.104;2024-03-23T03:34:29;97875.81;;;11.70;72.55
61039;BME280;46919;45.816;3.104;2024-03-23T03:36:55;97881.81;;;11.72;72.02
61039;BME280;46919;45.816;3.104;2024-03-23T03:39:21;97898.06;;;11.72;72.39
61039;BME280;46919;45.816;3.104;2024-03-23T03:41:48;97894.91;;;11.75;71.26
61039;BME280;46919;45.816;3.104;2024-03-23T03:44:13;97882.41;;;11.74;71.15
61039;BME280;46919;45.816;3.104;2024-03-23T03:46:39;97882.53;;;11.68;70.37
61039;BME280;46919;45.816;3.104;2024-03-23T03:49:04;97885.81;;;11.58;71.00
61039;BME280;46919;45.816;3.104;2024-03-23T03:51:30;97889.69;;;11.62;70.47
61039;BME280;46919;45.816;3.104;2024-03-23T03:53:56;97892.72;;;11.54;70.70
61039;BME280;46919;45.816;3.104;2024-03-23T03:56:21;97900.47;;;11.50;70.55
61039;BME280;46919;45.816;3.104;2024-03-23T03:58:47;97906.13;;;11.49;71.04
61039;BME280;46919;45.816;3.104;2024-03-23T04:01:13;97896.22;;;11.42;71.76
61039;BME280;46919;45.816;3.104;2024-03-23T04:03:38;97899.97;;;11.41;72.18
61039;BME280;46919;45.816;3.104;2024-03-23T04:06:08;97898.78;;;11.37;72.47
61039;BME280;46919;45.816;3.104;2024-03-23T04:08:34;97903.75;;;11.40;72.36
61039;BME280;46919;45.816;3.104;2024-03-23T04:10:59;97906.44;;;11.40;72.63
61039;BME280;46919;45.816;3.104;2024-03-23T04:13:25;97903.75;;;11.40;72.17
61039;BME280;46919;45.816;3.104;2024-03-23T04:15:54;97915.97;;;11.43;72.16
61039;BME280;46919;45.816;3.104;2024-03-23T04:18:20;97915.84;;;11.38;72.49
61039;BME280;46919;45.816;3.104;2024-03-23T04:20:46;97915.03;;;11.37;73.03
61039;BME280;46919;45.816;3.104;2024-03-23T04:23:12;97922.91;;;11.39;72.78
61039;BME280;46919;45.816;3.104;2024-03-23T04:25:37;97940.09;;;11.45;72.81
61039;BME280;46919;45.816;3.104;2024-03-23T04:28:03;97968.16;;;11.13;74.11
61039;BME280;46919;45.816;3.104;2024-03-23T04:30:28;97970.22;;;10.81;74.77
61039;BME280;46919;45.816;3.104;2024-03-23T04:32:54;97967.91;;;10.41;76.32
61039;BME280;46919;45.816;3.104;2024-03-23T04:35:20;97986.56;;;10.17;77.29
61039;BME280;46919;45.816;3.104;2024-03-23T04:37:47;98006.19;;;10.06;77.15
61039;BME280;46919;45.816;3.104;2024-03-23T04:40:12;98010.84;;;9.92;76.64
61039;BME280;46919;45.816;3.104;2024-03-23T04:42:38;98013.22;;;9.75;75.86
61039;BME280;46919;45.816;3.104;2024-03-23T04:45:05;98040.03;;;9.70;75.29
61039;BME280;46919;45.816;3.104;2024-03-23T04:47:31;98043.03;;;9.55;74.64
61039;BME280;46919;45.816;3.104;2024-03-23T04:49:57;98042.06;;;9.36;74.91
61039;BME280;46919;45.816;3.104;2024-03-23T04:52:22;98047.25;;;9.37;74.04
61039;BME280;46919;45.816;3.104;2024-03-23T04:54:47;98046.84;;;9.27;74.60
61039;BME280;46919;45.816;3.104;2024-03-23T04:57:13;98056.38;;;9.23;74.19
61039;BME280;46919;45.816;3.104;2024-03-23T04:59:38;98064.53;;;9.10;73.87
61039;BME280;46919;45.816;3.104;2024-03-23T05:02:04;98073.44;;;9.03;73.28
61039;BME280;46919;45.816;3.104;2024-03-23T05:04:29;98069.34;;;8.87;73.02
61039;BME280;46919;45.816;3.104;2024-03-23T05:06:54;98072.66;;;8.76;72.99
61039;BME280;46919;45.816;3.104;2024-03-23T05:09:20;98094.63;;;8.73;73.05
61039;BME280;46919;45.816;3.104;2024-03-23T05:11:46;98097.75;;;8.63;73.19
61039;BME280;46919;45.816;3.104;2024-03-23T05:14:13;98107.28;;;8.52;72.86
61039;BME280;46919;45.816;3.104;2024-03-23T05:16:39;98112.66;;;8.46;72.84
61039;BME280;46919;45.816;3.104;2024-03-23T05:19:04;98106.19;;;8.33;72.54
61039;BME280;46919;45.816;3.104;2024-03-23T05:21:29;98117.38;;;8.30;72.55
61039;BME280;46919;45.816;3.104;2024-03-23T05:23:55;98129.75;;;8.18;73.31
61039;BME280;46919;45.816;3.104;2024-03-23T05:26:22;98134.75;;;8.21;72.37
61039;BME280;46919;45.816;3.104;2024-03-23T05:28:47;98148.81;;;8.16;72.33
61039;BME280;46919;45.816;3.104;2024-03-23T05:31:23;98135.94;;;7.98;72.61
61039;BME280;46919;45.816;3.104;2024-03-23T05:33:48;98137.31;;;7.81;73.33
61039;BME280;46919;45.816;3.104;2024-03-23T05:36:14;98154.25;;;7.75;73.85
61039;BME280;46919;45.816;3.104;2024-03-23T05:38:39;98155.72;;;7.77;73.67
61039;BME280;46919;45.816;3.104;2024-03-23T05:41:04;98158.63;;;7.76;73.80
61039;BME280;46919;45.816;3.104;2024-03-23T05:43:30;98162.31;;;7.75;74.04
61039;BME280;46919;45.816;3.104;2024-03-23T05:45:56;98165.63;;;7.70;74.16
61039;BME280;46919;45.816;3.104;2024-03-23T05:48:22;98175.56;;;7.70;73.90
61039;BME280;46919;45.816;3.104;2024-03-23T05:50:52;98165.56;;;7.57;74.44
61039;BME280;46919;45.816;3.104;2024-03-23T05:53:19;98165.97;;;7.60;74.87
61039;BME280;46919;45.816;3.104;2024-03-23T05:55:48;98173.50;;;7.72;74.77
61039;BME280;46919;45.816;3.104;2024-03-23T05:58:15;98179.75;;;7.79;74.45
61039;BME280;46919;45.816;3.104;2024-03-23T06:00:41;98168.59;;;7.89;74.11
61039;BME280;46919;45.816;3.104;2024-03-23T06:03:10;98171.91;;;7.84;73.56
61039;BME280;46919;45.816;3.104;2024-03-23T06:05:36;98183.06;;;7.88;72.89
61039;BME280;46919;45.816;3.104;2024-03-23T06:08:02;98181.84;;;7.90;73.04
61039;BME280;46919;45.816;3.104;2024-03-23T06:10:28;98188.47;;;7.94;72.59
61039;BME280;46919;45.816;3.104;2024-03-23T06:12:53;98190.97;;;7.96;72.11
61039;BME280;46919;45.816;3.104;2024-03-23T06:15:19;98196.81;;;8.00;71.92
61039;BME280;46919;45.816;3.104;2024-03-23T06:17:45;98197.59;;;7.93;71.26
61039;BME280;46919;45.816;3.104;2024-03-23T06:20:11;98211.50;;;7.97;67.69
61039;BME280;46919;45.816;3.104;2024-03-23T06:22:37;98215.53;;;7.79;66.01
61039;BME280;46919;45.816;3.104;2024-03-23T06:25:03;98217.16;;;7.74;65.03
61039;BME280;46919;45.816;3.104;2024-03-23T06:27:29;98232.72;;;7.78;64.52
61039;BME280;46919;45.816;3.104;2024-03-23T06:29:54;98219.91;;;7.80;61.67
61039;BME280;46919;45.816;3.104;2024-03-23T06:32:20;98221.09;;;7.71;61.66
61039;BME280;46919;45.816;3.104;2024-03-23T06:34:46;98240.50;;;7.67;62.44
61039;BME280;46919;45.816;3.104;2024-03-23T06:37:11;98239.31;;;7.69;62.45
61039;BME280;46919;45.816;3.104;2024-03-23T06:39:37;98247.50;;;7.61;63.04
61039;BME280;46919;45.816;3.104;2024-03-23T06:42:03;98243.00;;;7.68;63.67
61039;BME280;46919;45.816;3.104;2024-03-23T06:44:28;98235.56;;;7.70;63.73
61039;BME280;46919;45.816;3.104;2024-03-23T06:46:54;98235.19;;;7.80;63.43
61039;BME280;46919;45.816;3.104;2024-03-23T06:49:20;98239.38;;;7.83;63.47
61039;BME280;46919;45.816;3.104;2024-03-23T06:51:45;98254.88;;;7.80;63.30
61039;BME280;46919;45.816;3.104;2024-03-23T06:54:11;98254.91;;;7.87;63.12
61039;BME280;46919;45.816;3.104;2024-03-23T06:56:36;98255.28;;;7.77;62.00
61039;BME280;46919;45.816;3.104;2024-03-23T06:59:02;98257.97;;;7.77;61.37
61039;BME280;46919;45.816;3.104;2024-03-23T07:01:27;98278.22;;;7.73;61.20
61039;BME280;46919;45.816;3.104;2024-03-23T07:03:54;98261.88;;;7.75;61.31
61039;BME280;46919;45.816;3.104;2024-03-23T07:06:19;98264.13;;;7.71;60.60
61039;BME280;46919;45.816;3.104;2024-03-23T07:08:45;98269.53;;;7.71;59.89
61039;BME280;46919;45.816;3.104;2024-03-23T07:11:10;98276.97;;;7.69;58.64
61039;BME280;46919;45.816;3.104;2024-03-23T07:13:36;98298.03;;;7.66;59.34
61039;BME280;46919;45.816;3.104;2024-03-23T07:16:01;98285.16;;;7.61;58.84
61039;BME280;46919;45.816;3.104;2024-03-23T07:18:26;98289.75;;;7.67;58.97
61039;BME280;46919;45.816;3.104;2024-03-23T07:20:56;98292.44;;;7.67;58.12
61039;BME280;46919;45.816;3.104;2024-03-23T07:23:22;98295.53;;;7.64;57.55
61039;BME280;46919;45.816;3.104;2024-03-23T07:28:23;98298.81;;;7.59;56.75
61039;BME280;46919;45.816;3.104;2024-03-23T07:33:27;98291.00;;;7.65;55.38
61039;BME280;46919;45.816;3.104;2024-03-23T07:35:53;98284.88;;;7.77;55.07
61039;BME280;46919;45.816;3.104;2024-03-23T07:38:19;98302.34;;;7.88;54.49
61039;BME280;46919;45.816;3.104;2024-03-23T07:40:44;98294.91;;;7.97;53.11
61039;BME280;46919;45.816;3.104;2024-03-23T07:43:09;98281.19;;;7.85;53.58
61039;BME280;46919;45.816;3.104;2024-03-23T07:45:35;98285.44;;;8.01;53.88
61039;BME280;46919;45.816;3.104;2024-03-23T07:48:00;98292.97;;;8.19;53.87
61039;BME280;46919;45.816;3.104;2024-03-23T07:50:26;98298.56;;;8.18;53.94
61039;BME280;46919;45.816;3.104;2024-03-23T07:52:51;98306.81;;;8.09;53.97
61039;BME280;46919;45.816;3.104;2024-03-23T07:55:16;98302.63;;;8.07;53.95
61039;BME280;46919;45.816;3.104;2024-03-23T07:57:42;98321.88;;;8.04;54.34
61039;BME280;46919;45.816;3.104;2024-03-23T08:00:08;98306.47;;;7.91;53.84
61039;BME280;46919;45.816;3.104;2024-03-23T08:02:33;98311.44;;;7.87;54.48
61039;BME280;46919;45.816;3.104;2024-03-23T08:04:59;98315.44;;;7.98;54.83
61039;BME280;46919;45.816;3.104;2024-03-23T08:07:24;98319.75;;;7.92;54.29
61039;BME280;46919;45.816;3.104;2024-03-23T08:09:50;98312.25;;;7.88;54.44
61039;BME280;46919;45.816;3.104;2024-03-23T08:12:16;98311.84;;;7.91;54.29
61039;BME280;46919;45.816;3.104;2024-03-23T08:14:41;98321.38;;;7.87;53.61
61039;BME280;46919;45.816;3.104;2024-03-23T08:17:06;98306.78;;;7.74;52.46
61039;BME280;46919;45.816;3.104;2024-03-23T08:19:32;98307.06;;;7.86;52.20
61039;BME280;46919;45.816;3.104;2024-03-23T08:21:58;98301.41;;;8.09;51.96
61039;BME280;46919;45.816;3.104;2024-03-23T08:24:23;98305.84;;;8.24;50.07
61039;BME280;46919;45.816;3.104;2024-03-23T08:26:48;98325.09;;;8.21;49.67
61039;BME280;46919;45.816;3.104;2024-03-23T08:29:14;98340.63;;;8.19;48.04
61039;BME280;46919;45.816;3.104;2024-03-23T08:31:39;98310.34;;;8.16;46.41
61039;BME280;46919;45.816;3.104;2024-03-23T08:34:04;98319.13;;;8.32;46.55
61039;BME280;46919;45.816;3.104;2024-03-23T08:36:30;98313.34;;;8.35;46.21
61039;BME280;46919;45.816;3.104;2024-03-23T08:38:56;98309.66;;;8.43;46.86
61039;BME280;46919;45.816;3.104;2024-03-23T08:41:21;98321.94;;;8.45;47.14
61039;BME280;46919;45.816;3.104;2024-03-23T08:43:47;98321.66;;;8.40;43.82
61039;BME280;46919;45.816;3.104;2024-03-23T08:46:14;98317.75;;;8.43;43.76
61039;BME280;46919;45.816;3.104;2024-03-23T08:48:45;98321.75;;;8.54;43.68
61039;BME280;46919;45.816;3.104;2024-03-23T08:51:12;98323.66;;;8.60;44.15
61039;BME280;46919;45.816;3.104;2024-03-23T08:53:39;98320.56;;;8.69;44.34
61039;BME280;46919;45.816;3.104;2024-03-23T08:56:06;98321.47;;;8.83;44.38
61039;BME280;46919;45.816;3.104;2024-03-23T08:58:32;98322.69;;;8.87;43.36
61039;BME280;46919;45.816;3.104;2024-03-23T09:01:10;98323.31;;;8.89;42.83
61039;BME280;46919;45.816;3.104;2024-03-23T09:03:36;98320.19;;;8.86;42.29
61039;BME280;46919;45.816;3.104;2024-03-23T09:06:12;98323.09;;;8.91;41.74
61039;BME280;46919;45.816;3.104;2024-03-23T09:08:38;98325.19;;;8.89;40.83
61039;BME280;46919;45.816;3.104;2024-03-23T09:11:09;98333.06;;;8.84;40.55
61039;BME280;46919;45.816;3.104;2024-03-23T09:13:36;98336.97;;;8.81;40.64
61039;BME280;46919;45.816;3.104;2024-03-23T09:16:02;98333.53;;;9.01;41.80
61039;BME280;46919;45.816;3.104;2024-03-23T09:18:31;98327.94;;;9.16;41.59
61039;BME280;46919;45.816;3.104;2024-03-23T09:20:56;98317.78;;;9.11;40.87
61039;BME280;46919;45.816;3.104;2024-03-23T09:23:22;98319.84;;;9.16;42.27
61039;BME280;46919;45.816;3.104;2024-03-23T09:25:47;98310.75;;;9.23;42.89
61039;BME280;46919;45.816;3.104;2024-03-23T09:28:13;98321.72;;;9.42;42.65
61039;BME280;46919;45.816;3.104;2024-03-23T09:30:38;98321.72;;;9.42;42.12
61039;BME280;46919;45.816;3.104;2024-03-23T09:33:08;98313.22;;;9.32;42.18
61039;BME280;46919;45.816;3.104;2024-03-23T09:35:37;98311.16;;;9.40;42.72
61039;BME280;46919;45.816;3.104;2024-03-23T09:38:02;98312.81;;;9.41;42.35
61039;BME280;46919;45.816;3.104;2024-03-23T09:40:28;98316.78;;;9.52;42.14
61039;BME280;46919;45.816;3.104;2024-03-23T09:42:53;98311.59;;;9.71;42.34
61039;BME280;46919;45.816;3.104;2024-03-23T09:45:22;98322.97;;;9.79;40.98
61039;BME280;46919;45.816;3.104;2024-03-23T09:47:48;98316.16;;;9.77;40.90
61039;BME280;46919;45.816;3.104;2024-03-23T09:50:13;98325.69;;;9.93;41.17
61039;BME280;46919;45.816;3.104;2024-03-23T09:52:39;98319.44;;;10.06;41.56
61039;BME280;46919;45.816;3.104;2024-03-23T09:55:08;98323.56;;;10.02;40.03
61039;BME280;46919;45.816;3.104;2024-03-23T09:57:33;98319.44;;;9.92;40.58
61039;BME280;46919;45.816;3.104;2024-03-23T09:59:59;98325.91;;;9.91;40.51
61039;BME280;46919;45.816;3.104;2024-03-23T10:02:25;98306.97;;;9.85;40.13
61039;BME280;46919;45.816;3.104;2024-03-23T10:04:51;98312.59;;;9.96;41.00
61039;BME280;46919;45.816;3.104;2024-03-23T10:07:20;98315.25;;;10.10;40.38
61039;BME280;46919;45.816;3.104;2024-03-23T10:09:46;98306.53;;;10.08;40.33
61039;BME280;46919;45.816;3.104;2024-03-23T10:12:17;98311.50;;;10.11;40.06
61039;BME280;46919;45.816;3.104;2024-03-23T10:14:43;98304.88;;;10.07;40.76
61039;BME280;46919;45.816;3.104;2024-03-23T10:17:16;98304.25;;;10.05;41.08
61039;BME280;46919;45.816;3.104;2024-03-23T10:19:45;98295.78;;;9.94;41.26
61039;BME280;46919;45.816;3.104;2024-03-23T10:22:14;98284.34;;;9.92;41.39
61039;BME280;46919;45.816;3.104;2024-03-23T10:24:41;98276.34;;;10.38;41.68
61039;BME280;46919;45.816;3.104;2024-03-23T10:27:06;98280.66;;;10.52;40.89
61039;BME280;46919;45.816;3.104;2024-03-23T10:29:32;98275.75;;;10.74;40.93
61039;BME280;46919;45.816;3.104;2024-03-23T10:32:17;98277.41;;;11.14;39.85
61039;BME280;46919;45.816;3.104;2024-03-23T10:34:43;98283.19;;;10.85;40.64
61039;BME280;46919;45.816;3.104;2024-03-23T10:37:08;98282.31;;;10.92;40.11
61039;BME280;46919;45.816;3.104;2024-03-23T10:39:39;98277.34;;;10.88;40.11
61039;BME280;46919;45.816;3.104;2024-03-23T10:42:09;98281.56;;;10.78;40.49
61039;BME280;46919;45.816;3.104;2024-03-23T10:44:38;98273.41;;;10.84;39.35
61039;BME280;46919;45.816;3.104;2024-03-23T10:47:04;98276.25;;;10.96;39.61
61039;BME280;46919;45.816;3.104;2024-03-23T10:49:35;98284.97;;;10.98;39.12
61039;BME280;46919;45.816;3.104;2024-03-23T10:52:05;98277.19;;;10.83;39.55
61039;BME280;46919;45.816;3.104;2024-03-23T10:54:32;98278.34;;;10.94;39.59
61039;BME280;46919;45.816;3.104;2024-03-23T10:57:07;98275.47;;;10.89;39.75
61039;BME280;46919;45.816;3.104;2024-03-23T10:59:36;98258.69;;;11.37;39.71
61039;BME280;46919;45.816;3.104;2024-03-23T11:02:02;98253.94;;;11.58;39.25
61039;BME280;46919;45.816;3.104;2024-03-23T11:04:32;98252.09;;;11.77;39.07
61039;BME280;46919;45.816;3.104;2024-03-23T11:06:58;98247.91;;;12.00;39.19
61039;BME280;46919;45.816;3.104;2024-03-23T11:09:40;98259.00;;;11.73;37.64
61039;BME280;46919;45.816;3.104;2024-03-23T11:14:48;98234.16;;;12.20;39.12
61039;BME280;46919;45.816;3.104;2024-03-23T11:17:22;98233.41;;;12.61;37.54
61039;BME280;46919;45.816;3.104;2024-03-23T11:20:01;98239.19;;;12.65;37.74
61039;BME280;46919;45.816;3.104;2024-03-23T11:22:46;98236.78;;;12.26;36.91
61039;BME280;46919;45.816;3.104;2024-03-23T11:25:19;98231.66;;;12.67;38.40
61039;BME280;46919;45.816;3.104;2024-03-23T11:27:50;98210.53;;;13.11;37.76
61039;BME280;46919;45.816;3.104;2024-03-23T11:30:18;98200.88;;;13.15;37.01
61039;BME280;46919;45.816;3.104;2024-03-23T11:32:45;98208.00;;;13.40;37.74
61039;BME280;46919;45.816;3.104;2024-03-23T11:35:24;98214.63;;;13.44;36.10
61039;BME280;46919;45.816;3.104;2024-03-23T11:38:02;98212.75;;;12.91;35.83
61039;BME280;46919;45.816;3.104;2024-03-23T11:40:27;98206.00;;;12.81;36.03
61039;BME280;46919;45.816;3.104;2024-03-23T11:42:55;98212.66;;;12.37;35.26
61039;BME280;46919;45.816;3.104;2024-03-23T11:45:21;98202.78;;;11.93;35.91
61039;BME280;46919;45.816;3.104;2024-03-23T11:47:46;98197.63;;;11.85;36.60
61039;BME280;46919;45.816;3.104;2024-03-23T11:50:19;98191.66;;;12.32;36.66
61039;BME280;46919;45.816;3.104;2024-03-23T11:52:44;98182.38;;;12.70;36.18
61039;BME280;46919;45.816;3.104;2024-03-23T11:55:10;98176.69;;;13.14;35.30
61039;BME280;46919;45.816;3.104;2024-03-23T11:57:35;98169.53;;;13.43;35.25
61039;BME280;46919;45.816;3.104;2024-03-23T12:00:01;98175.44;;;13.52;35.57
61039;BME280;46919;45.816;3.104;2024-03-23T12:02:26;98181.22;;;13.55;34.61
61039;BME280;46919;45.816;3.104;2024-03-23T12:04:52;98160.47;;;14.02;33.38
61039;BME280;46919;45.816;3.104;2024-03-23T12:07:21;98153.16;;;14.02;33.51
61039;BME280;46919;45.816;3.104;2024-03-23T12:10:03;98150.75;;;14.18;33.58
61039;BME280;46919;45.816;3.104;2024-03-23T12:12:29;98152.69;;;14.34;33.98
61039;BME280;46919;45.816;3.104;2024-03-23T12:15:05;98159.50;;;14.77;32.07
61039;BME280;46919;45.816;3.104;2024-03-23T12:17:31;98153.56;;;14.80;32.92
61039;BME280;46919;45.816;3.104;2024-03-23T12:19:57;98138.22;;;15.42;33.38
61039;BME280;46919;45.816;3.104;2024-03-23T12:22:23;98131.19;;;15.68;33.08
61039;BME280;46919;45.816;3.104;2024-03-23T12:24:49;98136.53;;;15.97;32.58
61039;BME280;46919;45.816;3.104;2024-03-23T12:27:14;98122.00;;;16.14;33.31
61039;BME280;46919;45.816;3.104;2024-03-23T12:29:40;98115.25;;;16.48;32.51
61039;BME280;46919;45.816;3.104;2024-03-23T12:32:11;98114.50;;;16.26;31.62
61039;BME280;46919;45.816;3.104;2024-03-23T12:34:37;98114.75;;;16.24;30.61
61039;BME280;46919;45.816;3.104;2024-03-23T12:37:03;98094.47;;;15.71;31.83
61039;BME280;46919;45.816;3.104;2024-03-23T12:39:28;98111.91;;;15.14;33.17
61039;BME280;46919;45.816;3.104;2024-03-23T12:41:54;98108.78;;;15.22;33.72
61039;BME280;46919;45.816;3.104;2024-03-23T12:44:19;98094.91;;;15.63;32.37
61039;BME280;46919;45.816;3.104;2024-03-23T12:46:45;98109.72;;;15.50;31.78
61039;BME280;46919;45.816;3.104;2024-03-23T12:49:11;98103.44;;;14.47;31.78
61039;BME280;46919;45.816;3.104;2024-03-23T12:51:36;98096.66;;;14.33;30.62
61039;BME280;46919;45.816;3.104;2024-03-23T12:54:02;98086.88;;;14.49;31.18
61039;BME280;46919;45.816;3.104;2024-03-23T12:56:28;98083.03;;;15.13;32.16
61039;BME280;46919;45.816;3.104;2024-03-23T12:58:56;98061.38;;;15.62;32.58
61039;BME280;46919;45.816;3.104;2024-03-23T13:01:25;98059.13;;;15.15;31.23
61039;BME280;46919;45.816;3.104;2024-03-23T13:03:51;98075.09;;;15.28;30.42
61039;BME280;46919;45.816;3.104;2024-03-23T13:06:17;98060.53;;;15.39;32.49
61039;BME280;46919;45.816;3.104;2024-03-23T13:08:46;98064.88;;;15.35;30.54
61039;BME280;46919;45.816;3.104;2024-03-23T13:11:12;98058.81;;;14.77;30.71
61039;BME280;46919;45.816;3.104;2024-03-23T13:13:38;98065.03;;;13.98;31.82
61039;BME280;46919;45.816;3.104;2024-03-23T13:16:04;98062.06;;;14.28;31.85
61039;BME280;46919;45.816;3.104;2024-03-23T13:18:31;98044.44;;;15.38;29.57
61039;BME280;46919;45.816;3.104;2024-03-23T13:20:56;98039.09;;;15.04;31.04
61039;BME280;46919;45.816;3.104;2024-03-23T13:23:21;98035.34;;;15.93;29.77
61039;BME280;46919;45.816;3.104;2024-03-23T13:25:54;98023.66;;;16.25;28.84
61039;BME280;46919;45.816;3.104;2024-03-23T13:28:21;98020.38;;;15.96;28.56
61039;BME280;46919;45.816;3.104;2024-03-23T13:30:53;98033.75;;;14.58;29.06
61039;BME280;46919;45.816;3.104;2024-03-23T13:33:19;98034.00;;;14.11;29.87
61039;BME280;46919;45.816;3.104;2024-03-23T13:35:54;98029.81;;;15.22;29.70
61039;BME280;46919;45.816;3.104;2024-03-23T13:38:20;98012.03;;;15.36;29.89
61039;BME280;46919;45.816;3.104;2024-03-23T13:43:18;98004.44;;;16.10;30.21
61039;BME280;46919;45.816;3.104;2024-03-23T13:45:45;98000.38;;;16.82;29.86
61039;BME280;46919;45.816;3.104;2024-03-23T13:48:11;98003.63;;;16.79;29.02
61039;BME280;46919;45.816;3.104;2024-03-23T13:50:36;98007.66;;;16.34;30.00
61039;BME280;46919;45.816;3.104;2024-03-23T13:53:02;97985.28;;;16.32;29.84
61039;BME280;46919;45.816;3.104;2024-03-23T13:55:27;97978.50;;;16.40;29.69
61039;BME280;46919;45.816;3.104;2024-03-23T13:57:52;97981.53;;;16.81;28.75
61039;BME280;46919;45.816;3.104;2024-03-23T14:00:18;97979.72;;;16.22;30.24
61039;BME280;46919;45.816;3.104;2024-03-23T14:02:44;97988.81;;;17.02;29.51
61039;BME280;46919;45.816;3.104;2024-03-23T14:05:09;97985.78;;;16.61;29.00
61039;BME280;46919;45.816;3.104;2024-03-23T14:07:36;97985.75;;;16.56;29.28